createdAt,value
2023-05-20T00:01:07.320Z,7.77
2023-05-20T00:04:10.638Z,7.40
2023-05-20T00:07:15.370Z,7.30
2023-05-20T00:10:18.523Z,7.67
2023-05-20T00:13:21.710Z,5.93
2023-05-20T00:16:26.074Z,7.93
2023-05-20T00:19:29.325Z,7.03
2023-05-20T00:22:34.017Z,7.47
2023-05-20T00:25:37.362Z,7.23
2023-05-20T00:28:40.584Z,7.93
2023-05-20T00:31:43.798Z,8.03
2023-05-20T00:34:56.425Z,9.57
2023-05-20T00:38:00.992Z,7.20
2023-05-20T00:41:04.280Z,7.43
2023-05-20T00:44:07.454Z,7.17
2023-05-20T00:47:10.689Z,7.20
2023-05-20T00:50:14.097Z,6.63
2023-05-20T00:53:19.525Z,7.27
2023-05-20T00:56:22.992Z,7.47
2023-05-20T00:59:26.865Z,6.90
2023-05-20T01:02:31.256Z,7.87
2023-05-20T01:05:34.572Z,7.80
2023-05-20T01:08:39.348Z,7.57
2023-05-20T01:11:49.484Z,7.50
2023-05-20T01:14:59.187Z,7.43
2023-05-20T01:18:06.092Z,7.73
2023-05-20T01:21:12.063Z,8.70
2023-05-20T01:24:16.591Z,7.27
2023-05-20T01:27:20.707Z,7.83
2023-05-20T01:30:25.056Z,15.43
2023-05-20T01:33:31.197Z,7.90
2023-05-20T01:36:34.970Z,6.90
2023-05-20T01:39:45.253Z,7.60
2023-05-20T01:42:53.181Z,8.13
2023-05-20T01:45:56.744Z,8.20
2023-05-20T01:48:59.885Z,7.23
2023-05-20T01:52:03.472Z,7.30
2023-05-20T01:55:08.714Z,6.40
2023-05-20T01:58:11.822Z,7.57
2023-05-20T02:01:14.976Z,8.13
2023-05-20T02:04:19.182Z,6.83
2023-05-20T02:07:22.422Z,7.30
2023-05-20T02:10:26.913Z,7.60
2023-05-20T02:13:30.056Z,7.90
2023-05-20T02:16:33.475Z,7.20
2023-05-20T02:19:36.765Z,7.20
2023-05-20T02:22:39.952Z,7.93
2023-05-20T02:25:45.431Z,7.40
2023-05-20T02:28:50.888Z,7.77
2023-05-20T02:31:54.407Z,7.30
2023-05-20T02:34:57.689Z,7.43
2023-05-20T02:38:00.881Z,8.27
2023-05-20T02:41:05.558Z,8.37
2023-05-20T02:44:08.776Z,8.80
2023-05-20T02:47:12.083Z,9.43
2023-05-20T02:50:15.286Z,8.60
2023-05-20T02:53:18.446Z,7.43
2023-05-20T02:56:23.013Z,8.50
2023-05-20T02:59:26.116Z,9.07
2023-05-20T03:02:29.312Z,9.33
2023-05-20T03:05:32.828Z,8.50
2023-05-20T03:08:36.670Z,9.43
2023-05-20T03:11:41.160Z,9.83
2023-05-20T03:14:44.352Z,8.13
2023-05-20T03:17:47.517Z,9.10
2023-05-20T03:20:50.655Z,9.00
2023-05-20T03:23:53.764Z,8.67
2023-05-20T03:26:58.423Z,9.00
2023-05-20T03:30:01.696Z,7.90
2023-05-20T03:33:06.001Z,8.50
2023-05-20T03:36:09.221Z,10.20
2023-05-20T03:39:12.375Z,9.87
2023-05-20T03:42:17.003Z,8.37
2023-05-20T03:45:20.256Z,8.77
2023-05-20T03:48:23.438Z,7.43
2023-05-20T03:51:26.950Z,8.10
2023-05-20T03:54:31.616Z,7.90
2023-05-20T03:57:36.678Z,9.87
2023-05-20T04:00:40.107Z,7.97
2023-05-20T04:03:43.897Z,8.73
2023-05-20T04:06:47.368Z,7.93
2023-05-20T04:09:50.665Z,8.67
2023-05-20T04:12:55.360Z,8.63
2023-05-20T04:15:58.515Z,7.97
2023-05-20T04:19:02.817Z,7.77
2023-05-20T04:22:06.394Z,8.83
2023-05-20T04:25:09.987Z,8.50
2023-05-20T04:28:16.514Z,8.17
2023-05-20T04:31:21.347Z,7.67
2023-05-20T04:34:26.964Z,7.10
2023-05-20T04:37:32.143Z,7.07
2023-05-20T04:40:35.637Z,7.30
2023-05-20T04:43:40.486Z,7.40
2023-05-20T04:46:44.815Z,9.00
2023-05-20T04:49:47.989Z,8.33
2023-05-20T04:52:51.782Z,8.70
2023-05-20T04:55:57.002Z,7.93
2023-05-20T04:59:01.999Z,7.10
2023-05-20T05:02:05.472Z,7.70
2023-05-20T05:05:09.461Z,8.03
2023-05-20T05:08:12.761Z,7.57
2023-05-20T05:11:15.875Z,10.93
2023-05-20T05:14:20.456Z,7.67
2023-05-20T05:17:23.670Z,8.00
2023-05-20T05:20:26.752Z,7.30
2023-05-20T05:23:29.897Z,7.73
2023-05-20T05:26:33.042Z,7.63
2023-05-20T05:29:37.621Z,8.47
2023-05-20T05:32:43.711Z,10.57
2023-05-20T05:35:46.875Z,7.30
2023-05-20T05:38:50.043Z,8.03
2023-05-20T05:41:54.265Z,7.33
2023-05-20T05:44:58.959Z,6.93
2023-05-20T05:48:02.214Z,7.10
2023-05-20T05:51:06.155Z,8.40
2023-05-20T05:54:09.369Z,8.43
2023-05-20T05:57:12.513Z,9.40
2023-05-20T06:00:18.173Z,8.10
2023-05-20T06:03:21.400Z,8.10
2023-05-20T06:06:24.666Z,7.73
2023-05-20T06:09:27.908Z,6.93
2023-05-20T06:12:31.142Z,7.73
2023-05-20T06:15:36.543Z,8.43
2023-05-20T06:18:40.040Z,6.40
2023-05-20T06:21:43.198Z,6.67
2023-05-20T06:24:46.349Z,8.33
2023-05-20T06:27:49.734Z,9.27
2023-05-20T06:30:56.025Z,6.77
2023-05-20T06:33:59.259Z,7.23
2023-05-20T06:37:02.533Z,6.37
2023-05-20T06:40:07.010Z,7.30
2023-05-20T06:43:10.174Z,7.87
2023-05-20T06:46:14.712Z,6.87
2023-05-20T06:49:17.911Z,6.33
2023-05-20T06:52:21.013Z,7.80
2023-05-20T06:55:24.203Z,7.37
2023-05-20T06:58:27.482Z,7.23
2023-05-20T07:01:32.076Z,6.13
2023-05-20T07:04:35.262Z,10.67
2023-05-20T07:07:38.371Z,6.80
2023-05-20T07:10:41.580Z,6.40
2023-05-20T07:13:44.746Z,6.40
2023-05-20T07:16:49.262Z,6.20
2023-05-20T07:19:52.559Z,6.90
2023-05-20T07:22:55.696Z,6.20
2023-05-20T07:25:58.887Z,4.45
2023-05-20T07:29:02.116Z,6.53
2023-05-20T07:32:07.610Z,6.85
2023-05-20T07:35:11.135Z,6.35
2023-05-20T07:38:14.333Z,7.00
2023-05-20T07:41:17.475Z,6.70
2023-05-20T07:44:22.240Z,7.30
2023-05-20T07:47:26.779Z,7.40
2023-05-20T07:50:30.152Z,7.90
2023-05-20T07:53:33.755Z,8.23
2023-05-20T07:56:37.054Z,8.37
2023-05-20T07:59:40.256Z,7.17
2023-05-20T08:02:45.060Z,8.10
2023-05-20T08:05:48.291Z,7.73
2023-05-20T08:08:51.601Z,8.03
2023-05-20T08:11:54.741Z,8.23
2023-05-20T08:14:57.815Z,8.30
2023-05-20T08:18:02.397Z,8.57
2023-05-20T08:21:07.992Z,8.23
2023-05-20T08:24:11.232Z,8.50
2023-05-20T08:27:14.490Z,7.73
2023-05-20T08:30:17.634Z,7.23
2023-05-20T08:33:22.753Z,8.30
2023-05-20T08:36:27.600Z,9.07
2023-05-20T08:39:30.715Z,9.30
2023-05-20T08:42:34.375Z,7.00
2023-05-20T08:45:39.989Z,7.30
2023-05-20T08:48:44.724Z,8.20
2023-05-20T08:51:48.357Z,8.33
2023-05-20T08:54:52.963Z,8.57
2023-05-20T08:57:57.259Z,8.80
2023-05-20T09:01:01.049Z,8.40
2023-05-20T09:04:06.045Z,8.87
2023-05-20T09:07:09.260Z,9.07
2023-05-20T09:10:12.610Z,8.40
2023-05-20T09:13:18.417Z,7.47
2023-05-20T09:16:21.591Z,8.53
2023-05-20T09:19:26.633Z,7.20
2023-05-20T09:22:32.796Z,8.43
2023-05-20T09:25:36.956Z,11.63
2023-05-20T09:28:41.099Z,8.37
2023-05-20T09:31:44.643Z,7.77
2023-05-20T09:34:49.553Z,8.03
2023-05-20T09:37:54.973Z,8.97
2023-05-20T09:41:01.659Z,8.50
2023-05-20T09:44:06.794Z,9.10
2023-05-20T09:47:10.867Z,7.90
2023-05-20T09:50:17.131Z,7.77
2023-05-20T09:53:21.082Z,7.90
2023-05-20T09:56:26.549Z,8.97
2023-05-20T09:59:32.733Z,9.00
2023-05-20T10:02:36.849Z,8.00
2023-05-20T10:05:46.721Z,7.23
2023-05-20T10:09:07.479Z,9.27
2023-05-20T10:12:21.239Z,8.20
2023-05-20T10:15:30.006Z,8.03
2023-05-20T10:18:46.966Z,7.60
2023-05-20T10:22:00.236Z,7.47
2023-05-20T10:25:07.916Z,7.60
2023-05-20T10:28:11.982Z,8.10
2023-05-20T10:31:19.522Z,8.03
2023-05-20T10:34:24.055Z,9.10
2023-05-20T10:37:29.368Z,8.17
2023-05-20T10:40:32.948Z,8.07
2023-05-20T10:43:36.415Z,8.33
2023-05-20T10:46:54.365Z,7.23
2023-05-20T10:50:06.057Z,8.60
2023-05-20T10:53:29.402Z,8.70
2023-05-20T10:56:36.454Z,11.57
2023-05-20T10:59:39.827Z,10.43
2023-05-20T11:02:43.594Z,11.70
2023-05-20T11:05:47.519Z,8.90
2023-05-20T11:08:52.047Z,9.00
2023-05-20T11:11:56.225Z,8.67
2023-05-20T11:14:59.339Z,9.10
2023-05-20T11:18:03.895Z,9.70
2023-05-20T11:21:07.129Z,9.10
2023-05-20T11:24:11.996Z,8.20
2023-05-20T11:27:15.197Z,8.43
2023-05-20T11:30:20.632Z,8.80
2023-05-20T11:33:27.797Z,8.57
2023-05-20T11:36:31.159Z,8.90
2023-05-20T11:39:35.644Z,9.63
2023-05-20T11:42:38.857Z,8.40
2023-05-20T11:45:43.064Z,9.10
2023-05-20T11:48:53.208Z,10.23
2023-05-20T11:51:57.680Z,9.80
2023-05-20T11:55:02.208Z,9.63
2023-05-20T11:58:05.433Z,8.93
2023-05-20T12:01:20.942Z,9.87
2023-05-20T12:04:25.390Z,9.43
2023-05-20T12:07:28.568Z,10.13
2023-05-20T12:10:33.426Z,9.27
2023-05-20T12:13:36.701Z,9.23
2023-05-20T12:16:40.064Z,9.90
2023-05-20T12:19:45.492Z,8.70
2023-05-20T12:22:49.479Z,9.67
2023-05-20T12:25:54.024Z,8.90
2023-05-20T12:28:57.573Z,9.67
2023-05-20T12:32:01.566Z,8.50
2023-05-20T12:35:04.898Z,8.80
2023-05-20T12:38:08.501Z,10.23
2023-05-20T12:41:13.009Z,9.10
2023-05-20T12:44:16.192Z,9.10
2023-05-20T12:47:19.563Z,9.27
2023-05-20T12:50:22.957Z,8.17
2023-05-20T12:53:26.244Z,8.60
2023-05-20T12:56:30.910Z,8.93
2023-05-20T12:59:34.064Z,11.13
2023-05-20T13:02:39.690Z,9.80
2023-05-20T13:05:43.197Z,8.43
2023-05-20T13:08:46.506Z,9.23
2023-05-20T13:11:51.057Z,10.47
2023-05-20T13:14:54.325Z,9.10
2023-05-20T13:18:01.560Z,13.60
2023-05-20T13:21:05.190Z,8.97
2023-05-20T13:24:09.031Z,8.93
2023-05-20T13:27:13.770Z,8.87
2023-05-20T13:30:16.936Z,9.50
2023-05-20T13:33:20.073Z,9.00
2023-05-20T13:36:23.263Z,8.50
2023-05-20T13:39:27.266Z,10.97
2023-05-20T13:42:31.988Z,9.03
2023-05-20T13:45:35.126Z,8.57
2023-05-20T13:48:38.388Z,8.93
2023-05-20T13:51:41.536Z,9.83
2023-05-20T13:54:46.855Z,9.33
2023-05-20T13:57:53.366Z,9.50
2023-05-20T14:00:57.082Z,9.40
2023-05-20T14:04:00.335Z,10.43
2023-05-20T14:07:03.545Z,8.90
2023-05-20T14:10:09.289Z,9.87
2023-05-20T14:13:13.834Z,10.07
2023-05-20T14:16:17.196Z,9.37
2023-05-20T14:19:20.491Z,8.80
2023-05-20T14:22:23.698Z,9.20
2023-05-20T14:25:27.886Z,9.53
2023-05-20T14:28:32.440Z,9.40
2023-05-20T14:31:35.616Z,8.83
2023-05-20T14:34:38.794Z,8.67
2023-05-20T14:37:42.035Z,9.03
2023-05-20T14:40:45.365Z,8.30
2023-05-20T14:43:49.889Z,8.90
2023-05-20T14:46:53.186Z,9.63
2023-05-20T14:49:57.248Z,8.00
2023-05-20T14:53:00.411Z,9.77
2023-05-20T14:56:03.693Z,9.37
2023-05-20T14:59:08.510Z,8.17
2023-05-20T15:02:13.395Z,9.13
2023-05-20T15:05:18.756Z,9.80
2023-05-20T15:08:22.159Z,9.33
2023-05-20T15:11:25.309Z,9.23
2023-05-20T15:14:29.989Z,9.23
2023-05-20T15:17:33.174Z,9.20
2023-05-20T15:20:36.418Z,10.00
2023-05-20T15:23:39.562Z,9.40
2023-05-20T15:26:42.713Z,10.30
2023-05-20T15:29:48.681Z,9.90
2023-05-20T15:32:51.920Z,11.27
2023-05-20T15:35:55.241Z,10.20
2023-05-20T15:38:58.436Z,9.43
2023-05-20T15:42:03.018Z,10.93
2023-05-20T15:45:08.399Z,9.90
2023-05-20T15:48:11.832Z,9.90
2023-05-20T15:51:15.656Z,9.30
2023-05-20T15:54:20.112Z,10.00
2023-05-20T15:57:23.538Z,9.80
2023-05-20T16:00:28.333Z,8.73
2023-05-20T16:03:32.137Z,9.10
2023-05-20T16:06:35.865Z,10.77
2023-05-20T16:09:39.110Z,9.50
2023-05-20T16:12:42.308Z,15.83
2023-05-20T16:15:46.999Z,10.33
2023-05-20T16:18:50.305Z,8.70
2023-05-20T16:21:53.488Z,9.43
2023-05-20T16:24:56.680Z,8.80
2023-05-20T16:28:01.101Z,9.43
2023-05-20T16:31:06.092Z,9.33
2023-05-20T16:34:09.327Z,10.27
2023-05-20T16:37:13.348Z,10.97
2023-05-20T16:40:16.587Z,10.90
2023-05-20T16:43:19.752Z,9.47
2023-05-20T16:46:24.275Z,15.13
2023-05-20T16:49:27.477Z,10.63
2023-05-20T16:52:30.806Z,11.43
2023-05-20T16:55:33.973Z,11.27
2023-05-20T16:58:37.243Z,10.37
2023-05-20T17:01:42.026Z,10.00
2023-05-20T17:04:45.223Z,13.80
2023-05-20T17:07:49.852Z,10.23
2023-05-20T17:10:54.178Z,9.27
2023-05-20T17:13:57.613Z,9.10
2023-05-20T17:17:02.197Z,10.63
2023-05-20T17:20:06.570Z,10.37
2023-05-20T17:23:09.815Z,10.57
2023-05-20T17:26:12.964Z,11.50
2023-05-20T17:29:16.258Z,8.60
2023-05-20T17:32:20.788Z,8.40
2023-05-20T17:35:25.746Z,8.47
2023-05-20T17:38:28.952Z,11.50
2023-05-20T17:41:32.141Z,9.10
2023-05-20T17:44:35.345Z,7.93
2023-05-20T17:47:39.919Z,8.90
2023-05-20T17:50:43.217Z,9.50
2023-05-20T17:53:46.824Z,9.00
2023-05-20T17:56:51.054Z,8.20
2023-05-20T17:59:54.678Z,9.13
2023-05-20T18:02:59.969Z,9.03
2023-05-20T18:06:05.631Z,9.10
2023-05-20T18:09:09.198Z,9.37
2023-05-20T18:12:12.453Z,9.03
2023-05-20T18:15:20.595Z,9.97
2023-05-20T18:18:25.106Z,11.50
2023-05-20T18:21:28.472Z,11.10
2023-05-20T18:24:31.610Z,9.80
2023-05-20T18:27:34.849Z,10.43
2023-05-20T18:30:38.011Z,10.20
2023-05-20T18:33:43.154Z,12.53
2023-05-20T18:36:46.442Z,10.47
2023-05-20T18:39:49.576Z,10.77
2023-05-20T18:42:52.672Z,12.50
2023-05-20T18:45:55.979Z,11.10
2023-05-20T18:49:00.646Z,13.00
2023-05-20T18:52:03.915Z,10.90
2023-05-20T18:55:08.070Z,10.93
2023-05-20T18:58:11.264Z,10.93
2023-05-20T19:01:14.429Z,11.40
2023-05-20T19:04:19.013Z,11.20
2023-05-20T19:07:22.853Z,10.40
2023-05-20T19:10:28.582Z,11.17
2023-05-20T19:13:32.467Z,9.90
2023-05-20T19:16:35.876Z,10.40
2023-05-20T19:19:40.558Z,10.53
2023-05-20T19:22:43.627Z,10.07
2023-05-20T19:25:46.885Z,11.17
2023-05-20T19:28:50.020Z,9.97
2023-05-20T19:31:53.234Z,10.93
2023-05-20T19:34:57.735Z,11.57
2023-05-20T19:38:01.332Z,11.10
2023-05-20T19:41:04.470Z,11.77
2023-05-20T19:44:08.691Z,10.43
2023-05-20T19:47:12.452Z,11.23
2023-05-20T19:50:17.193Z,11.93
2023-05-20T19:53:21.055Z,10.73
2023-05-20T19:56:24.356Z,11.60
2023-05-20T19:59:27.537Z,11.47
2023-05-20T20:02:30.942Z,12.07
2023-05-20T20:05:36.498Z,14.60
2023-05-20T20:08:40.222Z,11.93
2023-05-20T20:11:43.464Z,12.30
2023-05-20T20:14:46.634Z,13.07
2023-05-20T20:17:52.460Z,12.83
2023-05-20T20:20:59.791Z,11.00
2023-05-20T20:24:03.005Z,12.07
2023-05-20T20:27:06.529Z,11.80
2023-05-20T20:30:10.714Z,10.20
2023-05-20T20:33:13.940Z,10.37
2023-05-20T20:36:18.614Z,10.47
2023-05-20T20:39:23.862Z,10.40
2023-05-20T20:42:27.956Z,10.43
2023-05-20T20:45:31.091Z,12.10
2023-05-20T20:48:34.640Z,10.70
2023-05-20T20:51:39.279Z,11.47
2023-05-20T20:54:43.388Z,11.17
2023-05-20T20:57:48.055Z,12.17
2023-05-20T21:00:51.351Z,12.27
2023-05-20T21:03:54.647Z,11.23
2023-05-20T21:07:02.099Z,10.70
2023-05-20T21:10:07.425Z,10.40
2023-05-20T21:13:11.052Z,10.83
2023-05-20T21:16:14.212Z,11.50
2023-05-20T21:19:17.439Z,11.40
2023-05-20T21:22:22.201Z,10.10
2023-05-20T21:25:25.340Z,10.37
2023-05-20T21:28:28.426Z,10.87
2023-05-20T21:31:31.574Z,10.47
2023-05-20T21:34:34.853Z,10.13
2023-05-20T21:37:39.413Z,10.53
2023-05-20T21:40:42.545Z,10.80
2023-05-20T21:43:45.681Z,12.97
2023-05-20T21:46:48.989Z,13.07
2023-05-20T21:49:52.297Z,12.50
2023-05-20T21:52:56.898Z,12.90
2023-05-20T21:56:00.114Z,10.90
2023-05-20T21:59:03.261Z,14.33
2023-05-20T22:02:06.739Z,11.50
2023-05-20T22:05:11.871Z,13.57
2023-05-20T22:08:17.013Z,12.30
2023-05-20T22:11:21.723Z,13.00
2023-05-20T22:14:24.866Z,12.70
2023-05-20T22:17:28.105Z,12.47
2023-05-20T22:20:33.931Z,12.77
2023-05-20T22:23:38.458Z,13.13
2023-05-20T22:26:41.700Z,13.03
2023-05-20T22:29:44.824Z,16.97
2023-05-20T22:32:47.984Z,14.03
2023-05-20T22:35:51.441Z,12.33
2023-05-20T22:38:56.034Z,13.17
2023-05-20T22:41:59.125Z,12.23
2023-05-20T22:45:02.217Z,13.80
2023-05-20T22:48:05.483Z,13.60
2023-05-20T22:51:08.980Z,13.90
2023-05-20T22:54:13.449Z,14.33
2023-05-20T22:57:16.954Z,13.63
2023-05-20T23:00:20.180Z,13.27
2023-05-20T23:03:23.339Z,13.43
2023-05-20T23:06:26.900Z,13.07
2023-05-20T23:09:31.469Z,14.13
2023-05-20T23:12:34.822Z,12.70
2023-05-20T23:15:38.155Z,14.73
2023-05-20T23:18:41.414Z,13.30
2023-05-20T23:21:44.565Z,12.80
2023-05-20T23:24:49.052Z,12.57
2023-05-20T23:27:52.252Z,15.57
2023-05-20T23:30:55.573Z,13.33
2023-05-20T23:33:58.944Z,13.70
2023-05-20T23:37:02.102Z,13.50
2023-05-20T23:40:09.200Z,14.10
2023-05-20T23:43:12.399Z,14.30
2023-05-20T23:46:15.874Z,14.17
2023-05-20T23:49:24.422Z,14.00
2023-05-20T23:52:28.320Z,13.60
2023-05-20T23:55:32.869Z,16.30
2023-05-20T23:58:36.100Z,11.90
